createdAt,value
2022-10-09T00:00:04.334Z,4.62
2022-10-09T00:01:07.204Z,5.24
2022-10-09T00:02:10.441Z,4.25
2022-10-09T00:03:13.869Z,3.70
2022-10-09T00:04:17.458Z,4.78
2022-10-09T00:05:20.834Z,5.59
2022-10-09T00:06:24.130Z,3.49
2022-10-09T00:07:27.522Z,3.60
2022-10-09T00:08:30.594Z,5.13
2022-10-09T00:09:34.081Z,4.48
2022-10-09T00:10:37.896Z,4.18
2022-10-09T00:11:41.477Z,4.43
2022-10-09T00:14:00.961Z,4.89
2022-10-09T00:15:04.443Z,3.88
2022-10-09T00:16:07.816Z,5.60
2022-10-09T00:17:11.499Z,3.95
2022-10-09T00:18:14.389Z,4.61
2022-10-09T00:19:17.265Z,4.72
2022-10-09T00:20:20.441Z,3.94
2022-10-09T00:21:23.933Z,3.67
2022-10-09T00:22:26.911Z,3.87
2022-10-09T00:23:30.087Z,3.83
2022-10-09T00:24:33.274Z,4.39
2022-10-09T00:25:36.661Z,5.26
2022-10-09T00:26:39.988Z,4.64
2022-10-09T00:27:43.332Z,5.10
2022-10-09T00:28:46.918Z,3.59
2022-10-09T00:29:49.801Z,3.85
2022-10-09T00:30:53.609Z,3.48
2022-10-09T00:31:56.886Z,4.46
2022-10-09T00:32:59.849Z,4.51
2022-10-09T00:34:02.832Z,5.16
2022-10-09T00:35:05.913Z,3.87
2022-10-09T00:36:09.199Z,5.38
2022-10-09T00:37:12.394Z,5.74
2022-10-09T00:38:15.578Z,4.85
2022-10-09T00:39:18.637Z,3.69
2022-10-09T00:40:21.526Z,3.94
2022-10-09T00:41:24.692Z,3.43
2022-10-09T00:42:28.182Z,4.71
2022-10-09T00:43:31.470Z,4.40
2022-10-09T00:44:34.548Z,4.37
2022-10-09T00:45:38.035Z,5.40
2022-10-09T00:46:41.432Z,4.79
2022-10-09T00:47:44.607Z,4.64
2022-10-09T00:48:47.787Z,3.32
2022-10-09T00:49:51.072Z,4.33
2022-10-09T00:50:54.146Z,5.22
2022-10-09T00:51:57.342Z,6.65
2022-10-09T00:53:00.204Z,5.55
2022-10-09T00:54:03.692Z,4.83
2022-10-09T00:55:07.085Z,4.36
2022-10-09T00:56:10.170Z,5.71
2022-10-09T00:57:13.247Z,6.19
2022-10-09T00:58:16.236Z,6.51
2022-10-09T00:59:19.712Z,5.37
2022-10-09T01:00:22.574Z,3.97
2022-10-09T01:01:25.606Z,4.61
2022-10-09T01:02:28.791Z,4.45
2022-10-09T01:03:32.753Z,3.66
2022-10-09T01:04:35.825Z,3.77
2022-10-09T01:05:39.106Z,5.24
2022-10-09T01:06:42.402Z,4.26
2022-10-09T01:07:45.575Z,4.04
2022-10-09T01:08:48.644Z,3.81
2022-10-09T01:09:51.747Z,3.41
2022-10-09T01:10:54.706Z,4.85
2022-10-09T01:11:57.883Z,3.95
2022-10-09T01:13:01.064Z,3.76
2022-10-09T01:14:04.471Z,3.78
2022-10-09T01:15:07.855Z,5.49
2022-10-09T01:16:11.305Z,4.96
2022-10-09T01:17:14.414Z,3.32
2022-10-09T01:18:17.594Z,3.78
2022-10-09T01:19:20.977Z,3.40
2022-10-09T01:20:24.783Z,4.37
2022-10-09T01:21:28.368Z,3.03
2022-10-09T01:22:31.661Z,6.29
2022-10-09T01:23:34.629Z,4.26
2022-10-09T01:24:37.811Z,4.02
2022-10-09T01:25:41.402Z,3.05
2022-10-09T01:26:44.272Z,3.94
2022-10-09T01:27:47.453Z,4.07
2022-10-09T01:28:50.741Z,5.16
2022-10-09T01:29:54.443Z,5.01
2022-10-09T01:30:59.228Z,3.49
2022-10-09T01:32:02.549Z,4.00
2022-10-09T01:33:05.636Z,5.17
2022-10-09T01:34:10.729Z,4.60
2022-10-09T01:35:13.926Z,4.75
2022-10-09T01:36:17.010Z,4.92
2022-10-09T01:37:20.507Z,2.97
2022-10-09T01:38:23.577Z,3.67
2022-10-09T01:39:26.763Z,3.72
2022-10-09T01:40:29.950Z,4.49
2022-10-09T01:41:34.126Z,3.42
2022-10-09T01:42:37.442Z,3.00
2022-10-09T01:43:40.516Z,3.17
2022-10-09T01:44:43.692Z,4.39
2022-10-09T01:45:47.387Z,5.63
2022-10-09T01:46:50.787Z,4.42
2022-10-09T01:47:53.854Z,5.40
2022-10-09T01:48:57.041Z,5.02
2022-10-09T01:50:00.745Z,3.98
2022-10-09T01:51:04.412Z,2.86
2022-10-09T01:52:07.410Z,3.47
2022-10-09T01:53:10.060Z,4.51
2022-10-09T01:54:12.946Z,4.48
2022-10-09T01:55:16.448Z,6.29
2022-10-09T01:56:19.723Z,5.29
2022-10-09T01:57:23.105Z,3.96
2022-10-09T01:58:27.626Z,3.54
2022-10-09T01:59:30.901Z,5.31
2022-10-09T02:00:33.887Z,6.42
2022-10-09T02:01:37.344Z,5.28
2022-10-09T02:02:40.811Z,4.32
2022-10-09T02:03:43.941Z,4.94
2022-10-09T02:04:47.114Z,4.52
2022-10-09T02:05:50.301Z,5.78
2022-10-09T02:06:54.103Z,5.02
2022-10-09T02:07:57.283Z,4.90
2022-10-09T02:09:00.468Z,5.89
2022-10-09T02:10:03.447Z,4.07
2022-10-09T02:11:06.525Z,6.53
2022-10-09T02:12:09.808Z,3.73
2022-10-09T02:13:12.574Z,4.17
2022-10-09T02:14:15.546Z,4.62
2022-10-09T02:15:18.745Z,4.00
2022-10-09T02:16:21.760Z,5.53
2022-10-09T02:17:24.876Z,4.14
2022-10-09T02:18:28.382Z,4.41
2022-10-09T02:19:31.882Z,3.01
2022-10-09T02:20:34.840Z,4.70
2022-10-09T02:21:38.025Z,4.25
2022-10-09T02:22:41.102Z,3.57
2022-10-09T02:23:44.290Z,3.77
2022-10-09T02:24:47.472Z,3.83
2022-10-09T02:25:50.345Z,3.95
2022-10-09T02:26:53.632Z,5.13
2022-10-09T02:27:56.707Z,4.12
2022-10-09T02:28:59.781Z,4.69
2022-10-09T02:30:02.762Z,4.05
2022-10-09T02:31:05.843Z,4.73
2022-10-09T02:32:08.512Z,5.12
2022-10-09T02:33:11.806Z,4.58
2022-10-09T02:34:14.881Z,4.31
2022-10-09T02:35:18.068Z,5.36
2022-10-09T02:36:21.140Z,4.55
2022-10-09T02:37:24.226Z,4.94
2022-10-09T02:38:27.294Z,5.45
2022-10-09T02:39:30.271Z,4.19
2022-10-09T02:40:33.560Z,5.75
2022-10-09T02:41:37.043Z,6.26
2022-10-09T02:42:40.853Z,5.27
2022-10-09T02:43:44.843Z,3.92
2022-10-09T02:44:48.228Z,3.59
2022-10-09T02:45:51.068Z,4.47
2022-10-09T02:46:54.112Z,5.44
2022-10-09T02:47:58.196Z,10.19
2022-10-09T02:49:01.673Z,7.28
2022-10-09T02:50:05.373Z,4.28
2022-10-09T02:51:08.860Z,4.49
2022-10-09T02:52:12.351Z,4.42
2022-10-09T02:53:15.627Z,5.05
2022-10-09T02:54:18.812Z,5.71
2022-10-09T02:55:22.113Z,5.45
2022-10-09T02:56:25.793Z,5.74
2022-10-09T02:57:29.286Z,5.41
2022-10-09T02:58:32.458Z,4.96
2022-10-09T02:59:35.564Z,6.87
2022-10-09T03:00:38.634Z,4.03
2022-10-09T03:01:42.211Z,4.42
2022-10-09T03:02:46.322Z,3.72
2022-10-09T03:03:49.599Z,4.25
2022-10-09T03:04:53.300Z,3.33
2022-10-09T03:05:56.796Z,2.83
2022-10-09T03:07:00.275Z,4.35
2022-10-09T03:08:03.454Z,4.56
2022-10-09T03:09:08.684Z,3.49
2022-10-09T03:10:11.564Z,3.05
2022-10-09T03:11:14.935Z,1.95
2022-10-09T03:12:17.941Z,3.95
2022-10-09T03:13:20.826Z,4.39
2022-10-09T03:14:24.793Z,5.92
2022-10-09T03:15:27.668Z,4.41
2022-10-09T03:16:30.723Z,4.36
2022-10-09T03:17:33.734Z,6.05
2022-10-09T03:18:37.002Z,5.56
2022-10-09T03:19:40.082Z,5.82
2022-10-09T03:20:43.410Z,4.60
2022-10-09T03:21:46.951Z,4.69
2022-10-09T03:22:50.926Z,3.89
2022-10-09T03:23:54.153Z,5.31
2022-10-09T03:24:57.532Z,4.93
2022-10-09T03:26:01.431Z,4.75
2022-10-09T03:27:04.719Z,4.82
2022-10-09T03:28:08.046Z,5.59
2022-10-09T03:29:12.731Z,4.85
2022-10-09T03:30:16.099Z,4.11
2022-10-09T03:31:39.785Z,4.74
2022-10-09T03:32:24.919Z,4.89
2022-10-09T03:33:28.207Z,4.39
2022-10-09T03:34:31.506Z,4.30
2022-10-09T03:35:35.414Z,5.31
2022-10-09T03:36:38.680Z,6.93
2022-10-09T03:37:42.376Z,6.39
2022-10-09T03:38:45.879Z,3.65
2022-10-09T03:39:49.352Z,4.30
2022-10-09T03:40:52.938Z,4.81
2022-10-09T03:41:56.136Z,4.98
2022-10-09T03:42:59.412Z,6.02
2022-10-09T03:44:03.006Z,6.34
2022-10-09T03:45:07.311Z,6.80
2022-10-09T03:46:11.096Z,6.64
2022-10-09T03:47:14.384Z,5.44
2022-10-09T03:48:17.382Z,4.70
2022-10-09T03:49:20.565Z,7.07
2022-10-09T03:50:23.797Z,5.45
2022-10-09T03:51:28.338Z,4.53
2022-10-09T03:52:34.048Z,6.03
2022-10-09T03:53:37.474Z,5.56
2022-10-09T03:54:40.651Z,6.28
2022-10-09T03:55:44.566Z,6.94
2022-10-09T03:56:48.247Z,4.82
2022-10-09T03:57:51.630Z,6.29
2022-10-09T03:58:55.322Z,4.94
2022-10-09T04:00:02.911Z,4.39
2022-10-09T04:01:06.482Z,5.51
2022-10-09T04:02:10.073Z,5.10
2022-10-09T04:03:13.276Z,4.24
2022-10-09T04:04:16.770Z,4.37
2022-10-09T04:05:20.155Z,6.18
2022-10-09T04:06:23.652Z,5.72
2022-10-09T04:07:27.033Z,5.71
2022-10-09T04:08:30.568Z,4.73
2022-10-09T04:09:33.411Z,4.33
2022-10-09T04:10:36.805Z,5.24
2022-10-09T04:11:40.373Z,6.05
2022-10-09T04:12:44.858Z,4.62
2022-10-09T04:13:48.371Z,3.81
2022-10-09T04:14:51.455Z,7.20
2022-10-09T04:16:06.447Z,7.76
2022-10-09T04:17:10.409Z,6.29
2022-10-09T04:18:13.386Z,5.60
2022-10-09T04:19:16.870Z,5.71
2022-10-09T04:20:23.549Z,6.94
2022-10-09T04:21:27.040Z,4.72
2022-10-09T04:22:30.728Z,5.24
2022-10-09T04:23:33.811Z,5.11
2022-10-09T04:24:37.187Z,5.85
2022-10-09T04:25:43.040Z,6.22
2022-10-09T04:26:46.519Z,5.58
2022-10-09T04:27:50.121Z,5.06
2022-10-09T04:28:53.811Z,5.46
2022-10-09T04:29:56.990Z,4.81
2022-10-09T04:31:00.169Z,4.40
2022-10-09T04:32:03.870Z,3.10
2022-10-09T04:33:11.797Z,3.94
2022-10-09T04:34:12.274Z,5.64
2022-10-09T04:35:15.873Z,5.92
2022-10-09T04:36:19.567Z,4.76
2022-10-09T04:37:24.814Z,4.81
2022-10-09T04:38:27.873Z,5.33
2022-10-09T04:39:31.740Z,4.39
2022-10-09T04:40:35.358Z,6.40
2022-10-09T04:41:38.751Z,8.25
2022-10-09T04:42:42.032Z,4.81
2022-10-09T04:43:45.448Z,4.60
2022-10-09T04:44:49.005Z,5.38
2022-10-09T04:45:52.827Z,4.94
2022-10-09T04:46:55.992Z,4.31
2022-10-09T04:48:00.105Z,5.12
2022-10-09T04:49:03.273Z,4.13
2022-10-09T04:50:06.563Z,5.42
2022-10-09T04:51:10.048Z,5.06
2022-10-09T04:52:13.121Z,4.87
2022-10-09T04:53:17.234Z,5.13
2022-10-09T04:54:20.337Z,5.25
2022-10-09T04:55:23.590Z,8.57
2022-10-09T04:56:27.594Z,5.62
2022-10-09T04:57:30.883Z,5.62
2022-10-09T04:58:33.951Z,5.20
2022-10-09T04:59:37.660Z,6.21
2022-10-09T05:00:41.107Z,6.12
2022-10-09T05:01:44.664Z,6.18
2022-10-09T05:02:48.588Z,6.08
2022-10-09T05:03:52.431Z,6.09
2022-10-09T05:05:03.150Z,6.39
2022-10-09T05:06:06.374Z,5.22
2022-10-09T05:07:10.260Z,5.16
2022-10-09T05:08:14.476Z,5.85
2022-10-09T05:09:17.868Z,6.85
2022-10-09T05:10:21.348Z,7.44
2022-10-09T05:11:24.427Z,7.49
2022-10-09T05:12:27.508Z,6.94
2022-10-09T05:13:31.513Z,7.12
2022-10-09T05:14:34.594Z,8.25
2022-10-09T05:15:38.590Z,6.68
2022-10-09T05:17:08.508Z,7.07
2022-10-09T05:17:47.302Z,6.81
2022-10-09T05:18:50.919Z,8.59
2022-10-09T05:19:54.400Z,7.66
2022-10-09T05:20:58.500Z,9.02
2022-10-09T05:22:01.988Z,8.20
2022-10-09T05:23:05.995Z,10.07
2022-10-09T05:24:10.577Z,7.90
2022-10-09T05:25:13.890Z,7.83
2022-10-09T05:26:17.888Z,9.78
2022-10-09T05:27:21.283Z,8.69
2022-10-09T05:28:25.063Z,9.47
2022-10-09T05:29:28.046Z,8.85
2022-10-09T05:30:31.221Z,8.05
2022-10-09T05:31:35.998Z,8.49
2022-10-09T05:32:38.813Z,9.47
2022-10-09T05:33:42.003Z,9.45
2022-10-09T05:34:44.877Z,10.57
2022-10-09T05:35:47.747Z,10.01
2022-10-09T05:36:51.353Z,9.51
2022-10-09T05:37:54.517Z,8.38
2022-10-09T05:38:57.919Z,9.22
2022-10-09T05:40:00.889Z,9.16
2022-10-09T05:41:03.973Z,9.06
2022-10-09T05:42:07.239Z,10.14
2022-10-09T05:43:10.316Z,10.36
2022-10-09T05:44:13.404Z,7.86
2022-10-09T05:45:17.413Z,8.07
2022-10-09T05:46:20.583Z,6.99
2022-10-09T05:47:24.018Z,9.71
2022-10-09T05:48:27.060Z,8.52
2022-10-09T05:49:30.542Z,6.66
2022-10-09T05:50:33.928Z,8.91
2022-10-09T05:51:38.142Z,7.48
2022-10-09T05:52:42.538Z,9.19
2022-10-09T05:53:45.424Z,7.84
2022-10-09T05:54:48.942Z,9.15
2022-10-09T05:55:51.885Z,8.22
2022-10-09T05:56:55.378Z,8.18
2022-10-09T05:57:58.547Z,7.76
2022-10-09T05:59:02.052Z,8.06
2022-10-09T06:00:05.153Z,6.95
2022-10-09T06:01:08.668Z,6.29
2022-10-09T06:02:12.063Z,10.62
2022-10-09T06:03:15.813Z,9.18
2022-10-09T06:04:19.090Z,6.85
2022-10-09T06:05:27.905Z,8.64
2022-10-09T06:06:32.536Z,7.41
2022-10-09T06:07:35.803Z,7.46
2022-10-09T06:08:38.976Z,7.27
2022-10-09T06:09:42.164Z,5.92
2022-10-09T06:10:46.074Z,7.35
2022-10-09T06:11:49.770Z,7.39
2022-10-09T06:12:53.157Z,6.98
2022-10-09T06:13:56.735Z,8.53
2022-10-09T06:15:00.010Z,12.19
2022-10-09T06:16:03.210Z,8.46
2022-10-09T06:17:06.568Z,5.98
2022-10-09T06:18:09.861Z,6.54
2022-10-09T06:19:13.165Z,7.64
2022-10-09T06:20:16.333Z,8.04
2022-10-09T06:21:19.356Z,8.38
2022-10-09T06:22:22.524Z,8.54
2022-10-09T06:23:25.970Z,7.38
2022-10-09T06:24:29.678Z,7.16
2022-10-09T06:25:33.133Z,11.03
2022-10-09T06:26:36.555Z,9.12
2022-10-09T06:27:40.245Z,10.17
2022-10-09T06:28:43.534Z,8.54
2022-10-09T06:29:46.717Z,9.07
2022-10-09T06:30:50.681Z,9.18
2022-10-09T06:32:00.585Z,8.15
2022-10-09T06:33:04.043Z,8.14
2022-10-09T06:34:07.740Z,8.29
2022-10-09T06:35:11.428Z,6.65
2022-10-09T06:36:14.534Z,5.17
2022-10-09T06:37:18.415Z,7.00
2022-10-09T06:38:21.682Z,6.94
2022-10-09T06:39:24.591Z,8.26
2022-10-09T06:40:27.838Z,10.79
2022-10-09T06:41:31.134Z,8.68
2022-10-09T06:42:34.840Z,8.31
2022-10-09T06:43:39.146Z,6.51
2022-10-09T06:44:42.014Z,7.41
2022-10-09T06:45:45.104Z,8.68
2022-10-09T06:46:48.987Z,7.42
2022-10-09T06:47:52.994Z,10.72
2022-10-09T06:48:56.699Z,9.37
2022-10-09T06:50:01.184Z,8.61
2022-10-09T06:51:04.503Z,9.38
2022-10-09T06:52:07.687Z,9.35
2022-10-09T06:53:11.051Z,9.90
2022-10-09T06:54:14.205Z,9.08
2022-10-09T06:55:18.555Z,11.52
2022-10-09T06:56:21.629Z,10.33
2022-10-09T06:57:25.214Z,9.61
2022-10-09T06:58:28.493Z,11.31
2022-10-09T06:59:31.990Z,11.08
2022-10-09T07:00:34.655Z,11.49
2022-10-09T07:01:37.726Z,13.08
2022-10-09T07:02:44.083Z,12.35
2022-10-09T07:03:45.940Z,10.86
2022-10-09T07:04:48.911Z,10.61
2022-10-09T07:05:52.300Z,11.48
2022-10-09T07:06:55.477Z,8.99
2022-10-09T07:07:58.762Z,10.40
2022-10-09T07:09:01.858Z,9.10
2022-10-09T07:10:04.820Z,8.18
2022-10-09T07:11:08.207Z,10.88
2022-10-09T07:12:11.293Z,9.68
2022-10-09T07:13:14.373Z,9.64
2022-10-09T07:14:17.248Z,5.42
2022-10-09T07:15:20.628Z,8.38
2022-10-09T07:17:40.205Z,10.94
2022-10-09T07:18:43.900Z,13.18
2022-10-09T07:19:47.409Z,10.24
2022-10-09T07:20:51.691Z,8.54
2022-10-09T07:21:55.187Z,7.55
2022-10-09T07:23:06.425Z,7.52
2022-10-09T07:24:09.449Z,10.78
2022-10-09T07:25:17.933Z,9.73
2022-10-09T07:26:21.224Z,10.66
2022-10-09T07:27:25.833Z,8.37
2022-10-09T07:28:30.058Z,8.81
2022-10-09T07:29:35.292Z,8.35
2022-10-09T07:30:38.415Z,10.24
2022-10-09T07:31:47.790Z,11.01
2022-10-09T07:32:52.186Z,9.43
2022-10-09T07:33:59.380Z,9.31
2022-10-09T07:35:02.667Z,11.29
2022-10-09T07:36:06.455Z,11.31
2022-10-09T07:37:11.373Z,11.14
2022-10-09T07:38:20.697Z,10.29
2022-10-09T07:39:23.983Z,12.64
2022-10-09T07:40:27.874Z,9.62
2022-10-09T07:41:31.061Z,10.79
2022-10-09T07:42:34.245Z,12.80
2022-10-09T07:43:37.936Z,10.70
2022-10-09T07:44:42.148Z,11.14
2022-10-09T07:45:45.770Z,12.99
2022-10-09T07:46:49.524Z,9.04
2022-10-09T07:48:01.313Z,10.14
2022-10-09T07:49:04.598Z,10.63
2022-10-09T07:50:08.455Z,10.46
2022-10-09T07:51:11.673Z,11.13
2022-10-09T07:52:15.067Z,11.22
2022-10-09T07:53:18.451Z,12.03
2022-10-09T07:54:21.319Z,12.22
2022-10-09T07:55:24.730Z,14.58
2022-10-09T07:56:28.121Z,13.38
2022-10-09T07:57:32.015Z,15.47
2022-10-09T07:58:35.271Z,12.79
2022-10-09T07:59:38.462Z,14.40
2022-10-09T08:00:41.733Z,12.05
2022-10-09T08:01:45.612Z,12.24
2022-10-09T08:02:50.294Z,15.23
2022-10-09T08:03:53.443Z,15.63
2022-10-09T08:04:56.833Z,15.76
2022-10-09T08:06:01.498Z,16.20
2022-10-09T08:07:05.055Z,12.89
2022-10-09T08:09:25.335Z,14.64
2022-10-09T08:10:36.250Z,15.09
2022-10-09T08:11:40.427Z,12.23
2022-10-09T08:12:44.222Z,13.57
2022-10-09T08:13:48.190Z,15.91
2022-10-09T08:14:51.583Z,12.73
2022-10-09T08:15:58.849Z,14.06
2022-10-09T08:17:03.567Z,14.46
2022-10-09T08:18:17.932Z,13.48
2022-10-09T08:19:21.402Z,17.20
2022-10-09T08:20:24.215Z,15.11
2022-10-09T08:21:27.162Z,15.07
2022-10-09T08:22:30.571Z,11.11
2022-10-09T08:23:33.741Z,14.24
2022-10-09T08:24:36.906Z,14.21
2022-10-09T08:25:40.195Z,14.21
2022-10-09T08:26:43.598Z,16.28
2022-10-09T08:27:47.280Z,16.31
2022-10-09T08:28:51.436Z,16.05
2022-10-09T08:29:54.657Z,19.31
2022-10-09T08:30:57.932Z,16.36
2022-10-09T08:32:01.221Z,16.14
2022-10-09T08:33:04.413Z,18.44
2022-10-09T08:34:08.026Z,17.65
2022-10-09T08:35:12.022Z,18.39
2022-10-09T08:36:15.801Z,15.18
2022-10-09T08:37:19.288Z,14.71
2022-10-09T08:38:46.082Z,13.90
2022-10-09T08:39:36.298Z,12.42
2022-10-09T08:40:40.712Z,9.73
2022-10-09T08:41:44.103Z,17.02
2022-10-09T08:42:50.258Z,16.51
2022-10-09T08:43:54.665Z,16.21
2022-10-09T08:44:58.286Z,18.15
2022-10-09T08:46:01.356Z,19.62
2022-10-09T08:47:05.012Z,13.34
2022-10-09T08:48:08.817Z,13.85
2022-10-09T08:49:12.310Z,17.11
2022-10-09T08:50:15.589Z,17.33
2022-10-09T08:51:18.462Z,18.43
2022-10-09T08:52:23.085Z,19.20
2022-10-09T08:53:29.441Z,17.83
2022-10-09T08:54:40.135Z,15.97
2022-10-09T08:55:43.490Z,16.48
2022-10-09T08:56:47.795Z,18.54
2022-10-09T08:57:50.974Z,18.59
2022-10-09T08:58:54.043Z,15.34
2022-10-09T08:59:57.686Z,20.53
2022-10-09T09:01:06.723Z,17.44
2022-10-09T09:02:13.115Z,15.91
2022-10-09T09:03:16.284Z,18.44
2022-10-09T09:04:22.348Z,18.32
2022-10-09T09:05:31.885Z,15.62
2022-10-09T09:06:37.321Z,14.45
2022-10-09T09:07:40.999Z,17.41
2022-10-09T09:08:44.078Z,20.88
2022-10-09T09:09:47.487Z,21.12
2022-10-09T09:10:51.167Z,17.13
2022-10-09T09:11:59.057Z,16.79
2022-10-09T09:13:03.166Z,18.32
2022-10-09T09:14:06.243Z,19.93
2022-10-09T09:15:09.732Z,19.87
2022-10-09T09:16:13.555Z,16.35
2022-10-09T09:17:21.536Z,17.69
2022-10-09T09:18:24.904Z,17.41
2022-10-09T09:19:31.036Z,15.56
2022-10-09T09:20:39.203Z,17.71
2022-10-09T09:21:43.262Z,15.27
2022-10-09T09:22:46.871Z,16.09
2022-10-09T09:23:52.217Z,17.57
2022-10-09T09:25:03.353Z,15.11
2022-10-09T09:26:06.536Z,16.43
2022-10-09T09:27:17.211Z,18.21
2022-10-09T09:28:20.743Z,17.68
2022-10-09T09:29:24.181Z,17.77
2022-10-09T09:30:27.465Z,16.45
2022-10-09T09:31:31.032Z,20.06
2022-10-09T09:32:34.460Z,17.85
2022-10-09T09:33:42.281Z,17.62
2022-10-09T09:34:43.365Z,19.00
2022-10-09T09:35:49.085Z,15.78
2022-10-09T09:36:51.972Z,15.85
2022-10-09T09:38:00.937Z,21.01
2022-10-09T09:40:36.021Z,17.95
2022-10-09T09:41:25.706Z,15.36
2022-10-09T09:42:29.494Z,17.53
2022-10-09T09:43:34.208Z,22.14
2022-10-09T09:44:37.999Z,17.33
2022-10-09T09:45:42.217Z,16.71
2022-10-09T09:46:45.845Z,15.61
2022-10-09T09:47:49.237Z,15.95
2022-10-09T09:48:52.991Z,12.86
2022-10-09T09:49:56.569Z,12.49
2022-10-09T09:51:23.412Z,11.38
2022-10-09T09:52:05.390Z,14.05
2022-10-09T09:53:08.708Z,17.12
2022-10-09T09:54:11.965Z,11.69
2022-10-09T09:55:15.247Z,14.05
2022-10-09T09:56:18.017Z,14.58
2022-10-09T09:57:22.142Z,18.22
2022-10-09T09:58:25.327Z,15.27
2022-10-09T09:59:31.877Z,16.94
2022-10-09T10:00:35.075Z,15.65
2022-10-09T10:01:44.437Z,18.47
2022-10-09T10:02:47.546Z,13.57
2022-10-09T10:03:50.939Z,15.05
2022-10-09T10:05:03.662Z,15.52
2022-10-09T10:06:07.244Z,14.82
2022-10-09T10:07:10.732Z,13.71
2022-10-09T10:08:14.016Z,14.08
2022-10-09T10:09:17.608Z,15.85
2022-10-09T10:10:25.031Z,16.83
2022-10-09T10:11:26.287Z,13.76
2022-10-09T10:12:29.499Z,16.33
2022-10-09T10:13:32.801Z,17.88
2022-10-09T10:14:35.516Z,15.08
2022-10-09T10:15:54.896Z,16.29
2022-10-09T10:16:57.796Z,14.89
2022-10-09T10:18:00.991Z,14.68
2022-10-09T10:19:04.330Z,17.22
2022-10-09T10:20:07.455Z,19.47
2022-10-09T10:21:10.738Z,15.32
2022-10-09T10:22:13.707Z,14.50
2022-10-09T10:23:16.964Z,15.35
2022-10-09T10:24:19.968Z,13.97
2022-10-09T10:25:22.949Z,16.59
2022-10-09T10:26:28.591Z,21.67
2022-10-09T10:27:32.187Z,16.59
2022-10-09T10:28:35.812Z,14.74
2022-10-09T10:29:41.917Z,14.71
2022-10-09T10:30:44.996Z,14.42
2022-10-09T10:31:48.186Z,13.79
2022-10-09T10:32:51.369Z,14.42
2022-10-09T10:33:54.035Z,12.50
2022-10-09T10:34:56.807Z,17.91
2022-10-09T10:36:00.601Z,14.15
2022-10-09T10:37:03.732Z,17.32
2022-10-09T10:38:07.370Z,14.28
2022-10-09T10:39:10.666Z,18.26
2022-10-09T10:40:20.303Z,16.32
2022-10-09T10:41:31.172Z,13.09
2022-10-09T10:42:34.440Z,14.51
2022-10-09T10:43:37.516Z,16.36
2022-10-09T10:44:40.535Z,14.82
2022-10-09T10:45:45.634Z,13.68
2022-10-09T10:46:49.251Z,15.39
2022-10-09T10:47:56.493Z,13.52
2022-10-09T10:48:59.376Z,12.88
2022-10-09T10:50:02.246Z,12.31
2022-10-09T10:51:07.706Z,15.36
2022-10-09T10:52:13.622Z,14.33
2022-10-09T10:53:17.622Z,14.15
2022-10-09T10:54:21.206Z,14.35
2022-10-09T10:55:24.395Z,14.95
2022-10-09T10:56:30.383Z,17.13
2022-10-09T10:57:37.412Z,17.92
2022-10-09T10:58:40.286Z,15.27
2022-10-09T10:59:53.756Z,12.74
2022-10-09T11:00:57.510Z,15.12
2022-10-09T11:02:00.790Z,13.89
2022-10-09T11:03:03.984Z,13.08
2022-10-09T11:04:07.187Z,13.93
2022-10-09T11:05:14.446Z,14.95
2022-10-09T11:06:17.824Z,13.51
2022-10-09T11:07:21.115Z,14.25
2022-10-09T11:08:24.069Z,16.86
2022-10-09T11:09:28.190Z,16.47
2022-10-09T11:10:30.952Z,14.89
2022-10-09T11:11:33.941Z,18.95
2022-10-09T11:12:47.735Z,14.37
2022-10-09T11:13:41.335Z,18.31
2022-10-09T11:14:44.510Z,15.73
2022-10-09T11:15:56.441Z,15.37
2022-10-09T11:16:59.785Z,16.77
2022-10-09T11:18:03.695Z,18.55
2022-10-09T11:19:07.067Z,16.64
2022-10-09T11:20:10.248Z,17.02
2022-10-09T11:21:13.520Z,15.06
2022-10-09T11:23:37.276Z,17.69
2022-10-09T11:24:40.594Z,16.64
2022-10-09T11:27:12.390Z,11.65
2022-10-09T11:29:36.433Z,13.87
2022-10-09T11:30:39.707Z,16.73
2022-10-09T11:33:03.320Z,16.70
2022-10-09T11:34:09.568Z,17.85
2022-10-09T11:35:12.830Z,14.55
2022-10-09T11:36:16.097Z,14.03
2022-10-09T11:37:22.152Z,18.25
2022-10-09T11:38:26.252Z,18.69
2022-10-09T11:39:29.532Z,17.32
2022-10-09T11:40:32.507Z,16.54
2022-10-09T11:41:36.313Z,18.17
2022-10-09T11:42:39.288Z,17.41
2022-10-09T11:43:46.972Z,12.89
2022-10-09T11:46:12.626Z,17.09
2022-10-09T11:47:15.660Z,17.17
2022-10-09T11:48:19.868Z,17.10
2022-10-09T11:49:23.433Z,21.40
2022-10-09T11:50:26.331Z,18.71
2022-10-09T11:51:29.196Z,18.37
2022-10-09T11:52:38.569Z,19.68
2022-10-09T11:53:42.021Z,16.98
2022-10-09T11:54:45.821Z,16.50
2022-10-09T11:55:48.998Z,17.02
2022-10-09T11:56:52.292Z,13.93
2022-10-09T11:58:02.219Z,16.54
2022-10-09T11:59:05.612Z,19.49
2022-10-09T12:00:08.702Z,15.27
2022-10-09T12:01:12.150Z,15.56
2022-10-09T12:02:15.860Z,16.33
2022-10-09T12:03:19.463Z,15.23
2022-10-09T12:04:37.363Z,16.86
2022-10-09T12:05:27.168Z,17.59
2022-10-09T12:06:30.001Z,20.37
2022-10-09T12:07:33.428Z,20.55
2022-10-09T12:08:36.300Z,19.30
2022-10-09T12:09:39.999Z,17.80
2022-10-09T12:10:42.779Z,17.53
2022-10-09T12:11:46.356Z,15.37
2022-10-09T12:12:50.330Z,15.57
2022-10-09T12:13:54.056Z,19.45
2022-10-09T12:14:57.137Z,19.27
2022-10-09T12:16:03.940Z,21.95
2022-10-09T12:17:07.280Z,19.59
2022-10-09T12:18:10.573Z,20.76
2022-10-09T12:19:13.656Z,18.99
2022-10-09T12:20:17.039Z,15.15
2022-10-09T12:21:20.413Z,16.38
2022-10-09T12:22:23.297Z,17.39
2022-10-09T12:23:27.871Z,17.50
2022-10-09T12:24:30.885Z,17.41
2022-10-09T12:25:34.059Z,19.68
2022-10-09T12:26:37.464Z,15.99
2022-10-09T12:27:40.437Z,12.65
2022-10-09T12:28:43.761Z,15.54
2022-10-09T12:29:47.109Z,16.16
2022-10-09T12:30:57.110Z,18.09
2022-10-09T12:32:00.224Z,14.77
2022-10-09T12:33:03.615Z,14.22
2022-10-09T12:34:06.497Z,14.99
2022-10-09T12:35:09.480Z,15.77
2022-10-09T12:36:12.660Z,14.22
2022-10-09T12:37:15.933Z,13.66
2022-10-09T12:38:19.110Z,15.16
2022-10-09T12:39:22.193Z,15.10
2022-10-09T12:40:25.207Z,14.19
2022-10-09T12:41:28.138Z,19.38
2022-10-09T12:43:34.298Z,14.37
2022-10-09T12:44:37.083Z,12.79
2022-10-09T12:45:40.120Z,13.15
2022-10-09T12:46:43.034Z,15.11
2022-10-09T12:47:46.003Z,15.60
2022-10-09T12:48:49.400Z,15.44
2022-10-09T12:49:52.166Z,17.35
2022-10-09T12:50:55.370Z,13.98
2022-10-09T12:51:58.419Z,16.10
2022-10-09T12:53:01.413Z,15.35
2022-10-09T12:54:04.594Z,16.43
2022-10-09T12:55:07.781Z,13.39
2022-10-09T12:56:12.073Z,14.19
2022-10-09T12:57:15.476Z,16.11
2022-10-09T12:58:18.638Z,15.64
2022-10-09T12:59:21.827Z,21.10
2022-10-09T13:00:24.615Z,19.96
2022-10-09T13:01:28.781Z,19.82
2022-10-09T13:02:32.085Z,18.71
2022-10-09T13:03:35.272Z,16.06
2022-10-09T13:04:38.454Z,19.89
2022-10-09T13:05:41.538Z,16.25
2022-10-09T13:06:44.720Z,17.09
2022-10-09T13:07:48.524Z,20.22
2022-10-09T13:08:51.799Z,17.26
2022-10-09T13:09:54.560Z,16.20
2022-10-09T13:10:57.542Z,16.25
2022-10-09T13:12:03.740Z,14.20
2022-10-09T13:13:07.081Z,13.41
2022-10-09T13:14:10.359Z,14.91
2022-10-09T13:15:15.922Z,15.96
2022-10-09T13:16:17.713Z,18.22
2022-10-09T13:17:23.870Z,17.64
2022-10-09T13:18:26.749Z,16.72
2022-10-09T13:19:30.070Z,16.41
2022-10-09T13:20:32.945Z,14.76
2022-10-09T13:21:35.816Z,15.24
2022-10-09T13:22:38.896Z,17.24
2022-10-09T13:23:42.991Z,20.51
2022-10-09T13:24:46.282Z,22.49
2022-10-09T13:25:49.357Z,18.18
2022-10-09T13:26:52.345Z,17.33
2022-10-09T13:27:55.730Z,17.28
2022-10-09T13:28:58.710Z,19.62
2022-10-09T13:30:01.689Z,16.84
2022-10-09T13:31:04.609Z,17.62
2022-10-09T13:32:07.635Z,18.65
2022-10-09T13:33:10.408Z,21.67
2022-10-09T13:34:13.594Z,19.63
2022-10-09T13:35:16.977Z,17.93
2022-10-09T13:36:19.743Z,16.70
2022-10-09T13:37:22.416Z,19.51
2022-10-09T13:38:25.281Z,19.75
2022-10-09T13:39:27.966Z,19.13
2022-10-09T13:40:30.530Z,15.35
2022-10-09T13:41:33.344Z,17.96
2022-10-09T13:42:36.075Z,22.42
2022-10-09T13:43:38.940Z,17.34
2022-10-09T13:44:41.986Z,16.23
2022-10-09T13:45:44.854Z,18.67
2022-10-09T13:46:47.880Z,21.78
2022-10-09T13:47:51.040Z,18.52
2022-10-09T13:48:54.554Z,18.06
2022-10-09T13:49:57.422Z,19.15
2022-10-09T13:51:00.401Z,21.33
2022-10-09T13:52:03.380Z,18.86
2022-10-09T13:53:06.167Z,18.51
2022-10-09T13:54:09.124Z,16.18
2022-10-09T13:55:12.199Z,17.62
2022-10-09T13:56:15.183Z,17.39
2022-10-09T13:57:17.969Z,18.83
2022-10-09T13:58:20.833Z,16.42
2022-10-09T13:59:23.501Z,19.17
2022-10-09T14:00:26.472Z,18.30
2022-10-09T14:01:29.453Z,16.32
2022-10-09T14:02:32.125Z,15.95
2022-10-09T14:03:34.999Z,17.80
2022-10-09T14:04:37.775Z,19.69
2022-10-09T14:05:40.644Z,19.16
2022-10-09T14:06:43.427Z,16.90
2022-10-09T14:07:46.496Z,17.27